createdAt,value
2023-03-13T00:01:52.872Z,40.01
2023-03-13T00:04:24.777Z,40.05
2023-03-13T00:06:51.437Z,40.34
2023-03-13T00:09:18.563Z,40.76
2023-03-13T00:11:45.856Z,40.88
2023-03-13T00:14:20.255Z,41.21
2023-03-13T00:16:49.463Z,41.34
2023-03-13T00:19:21.246Z,41.35
2023-03-13T00:21:53.139Z,41.28
2023-03-13T00:24:29.640Z,41.39
2023-03-13T00:26:56.537Z,41.88
2023-03-13T00:29:26.577Z,41.97
2023-03-13T00:31:56.890Z,42.19
2023-03-13T00:34:43.754Z,42.18
2023-03-13T00:37:10.364Z,42.57
2023-03-13T00:39:41.050Z,42.18
2023-03-13T00:42:08.492Z,42.42
2023-03-13T00:44:35.080Z,42.61
2023-03-13T00:47:05.526Z,42.96
2023-03-13T00:49:32.188Z,42.55
2023-03-13T00:52:04.314Z,42.42
2023-03-13T00:54:40.636Z,42.39
2023-03-13T00:57:12.873Z,42.62
2023-03-13T00:59:39.825Z,42.72
2023-03-13T01:02:06.537Z,42.74
2023-03-13T01:04:37.928Z,43.13
2023-03-13T01:07:04.551Z,43.40
2023-03-13T01:09:34.597Z,43.25
2023-03-13T01:12:03.730Z,43.23
2023-03-13T01:14:33.618Z,43.65
2023-03-13T01:17:08.266Z,44.06
2023-03-13T01:19:39.933Z,44.24
2023-03-13T01:22:06.511Z,44.50
2023-03-13T01:24:48.429Z,44.36
2023-03-13T01:27:15.103Z,44.52
2023-03-13T01:29:44.014Z,44.02
2023-03-13T01:32:10.719Z,44.00
2023-03-13T01:34:40.647Z,43.96
2023-03-13T01:37:16.396Z,43.49
2023-03-13T01:39:48.410Z,43.38
2023-03-13T01:42:19.766Z,43.22
2023-03-13T01:44:53.513Z,43.22
2023-03-13T01:47:22.222Z,43.11
2023-03-13T01:50:10.869Z,43.00
2023-03-13T01:53:07.595Z,42.68
2023-03-13T01:55:38.879Z,42.55
2023-03-13T01:58:14.879Z,42.13
2023-03-13T02:00:47.445Z,42.21
2023-03-13T02:03:23.891Z,42.03
2023-03-13T02:05:51.512Z,42.17
2023-03-13T02:08:24.077Z,42.17
2023-03-13T02:11:07.135Z,42.18
2023-03-13T02:13:36.343Z,42.29
2023-03-13T02:16:11.563Z,42.62
2023-03-13T02:18:43.553Z,42.95
2023-03-13T02:21:15.090Z,42.85
2023-03-13T02:23:56.147Z,43.61
2023-03-13T02:26:31.747Z,43.88
2023-03-13T02:29:05.519Z,43.55
2023-03-13T02:31:34.654Z,43.83
2023-03-13T02:34:01.471Z,44.06
2023-03-13T02:36:39.447Z,43.57
2023-03-13T02:39:06.686Z,43.61
2023-03-13T02:41:36.956Z,43.43
2023-03-13T02:44:05.787Z,43.85
2023-03-13T02:46:50.698Z,43.75
2023-03-13T02:49:24.829Z,44.08
2023-03-13T02:51:52.377Z,44.15
2023-03-13T02:54:29.328Z,44.16
2023-03-13T02:56:56.700Z,44.39
2023-03-13T02:59:24.058Z,44.37
2023-03-13T03:01:52.808Z,45.24
2023-03-13T03:04:23.243Z,45.39
2023-03-13T03:06:54.789Z,45.93
2023-03-13T03:09:22.428Z,46.68
2023-03-13T03:11:52.136Z,47.00
2023-03-13T03:14:19.137Z,47.05
2023-03-13T03:16:47.742Z,47.34
2023-03-13T03:19:14.776Z,46.82
2023-03-13T03:21:43.925Z,47.02
2023-03-13T03:24:10.597Z,46.82
2023-03-13T03:26:37.569Z,46.91
2023-03-13T03:29:11.126Z,47.58
2023-03-13T03:31:40.974Z,47.96
2023-03-13T03:34:09.570Z,48.08
2023-03-13T03:36:36.232Z,48.33
2023-03-13T03:39:03.268Z,48.90
2023-03-13T03:41:31.189Z,49.48
2023-03-13T03:43:59.033Z,49.36
2023-03-13T03:46:32.826Z,50.12
2023-03-13T03:48:59.664Z,50.11
2023-03-13T03:51:26.324Z,50.05
2023-03-13T03:53:52.919Z,50.43
2023-03-13T03:56:20.043Z,50.07
2023-03-13T03:58:51.671Z,49.77
2023-03-13T04:01:24.356Z,50.19
2023-03-13T04:03:51.032Z,50.35
2023-03-13T04:06:21.201Z,49.95
2023-03-13T04:08:48.057Z,50.09
2023-03-13T04:11:20.488Z,50.03
2023-03-13T04:13:50.464Z,49.79
2023-03-13T04:16:19.887Z,49.86
2023-03-13T04:18:47.746Z,50.09
2023-03-13T04:21:17.123Z,49.87
2023-03-13T04:23:48.505Z,49.49
2023-03-13T04:26:15.913Z,49.13
2023-03-13T04:28:46.458Z,49.15
2023-03-13T04:31:19.713Z,49.08
2023-03-13T04:34:01.290Z,49.35
2023-03-13T04:36:53.541Z,49.17
2023-03-13T04:39:37.573Z,48.89
2023-03-13T04:42:27.244Z,48.49
2023-03-13T04:45:14.205Z,48.74
2023-03-13T04:47:52.273Z,48.53
2023-03-13T04:50:30.729Z,48.79
2023-03-13T04:53:15.955Z,49.10
2023-03-13T04:56:03.222Z,48.60
2023-03-13T04:58:54.750Z,48.98
2023-03-13T05:01:52.773Z,48.63
2023-03-13T05:04:37.831Z,48.88
2023-03-13T05:07:25.223Z,48.35
2023-03-13T05:10:27.003Z,48.15
2023-03-13T05:13:07.608Z,48.70
2023-03-13T05:15:45.372Z,48.59
2023-03-13T05:18:32.293Z,48.47
2023-03-13T05:21:18.144Z,48.89
2023-03-13T05:24:03.478Z,48.82
2023-03-13T05:26:56.240Z,49.68
2023-03-13T05:29:35.448Z,50.49
2023-03-13T05:32:37.908Z,50.43
2023-03-13T05:35:24.914Z,50.34
2023-03-13T05:38:12.119Z,50.13
2023-03-13T05:40:58.170Z,50.38
2023-03-13T05:43:42.381Z,49.88
2023-03-13T05:46:29.248Z,49.77
2023-03-13T05:49:14.727Z,49.79
2023-03-13T05:51:59.894Z,49.43
2023-03-13T05:54:50.385Z,49.22
2023-03-13T05:57:35.975Z,49.09
2023-03-13T06:00:09.020Z,48.93
2023-03-13T06:02:50.868Z,48.66
2023-03-13T06:05:23.863Z,48.92
2023-03-13T06:07:50.872Z,48.93
2023-03-13T06:10:17.938Z,48.72
2023-03-13T06:12:46.975Z,48.56
2023-03-13T06:15:14.491Z,48.65
2023-03-13T06:17:55.733Z,49.05
2023-03-13T06:20:22.758Z,49.39
2023-03-13T06:22:49.446Z,49.36
2023-03-13T06:25:18.390Z,49.66
2023-03-13T06:27:44.966Z,49.41
2023-03-13T06:30:12.030Z,49.66
2023-03-13T06:32:38.756Z,49.33
2023-03-13T06:35:10.260Z,49.63
2023-03-13T06:37:36.905Z,49.43
2023-03-13T06:40:06.712Z,49.46
2023-03-13T06:42:36.242Z,48.73
2023-03-13T06:45:07.873Z,48.30
2023-03-13T06:47:34.652Z,48.47
2023-03-13T06:50:01.345Z,48.60
2023-03-13T06:52:41.398Z,48.33
2023-03-13T06:55:10.229Z,47.66
2023-03-13T06:57:36.793Z,48.32
2023-03-13T07:00:06.733Z,47.30
2023-03-13T07:02:35.672Z,47.37
2023-03-13T07:05:05.920Z,48.68
2023-03-13T07:07:34.024Z,49.04
2023-03-13T07:10:03.284Z,48.29
2023-03-13T07:12:32.440Z,47.96
2023-03-13T07:14:59.079Z,47.37
2023-03-13T07:17:25.779Z,47.53
2023-03-13T07:19:54.766Z,47.20
2023-03-13T07:22:21.581Z,47.98
2023-03-13T07:24:51.101Z,47.90
2023-03-13T07:27:17.908Z,47.56
2023-03-13T07:29:47.066Z,47.43
2023-03-13T07:32:16.192Z,46.44
2023-03-13T07:34:44.975Z,46.47
2023-03-13T07:37:14.696Z,46.94
2023-03-13T07:39:41.966Z,46.71
2023-03-13T07:42:10.315Z,47.82
2023-03-13T07:44:36.898Z,47.06
2023-03-13T07:47:03.482Z,46.85
2023-03-13T07:49:30.422Z,46.25
2023-03-13T07:51:59.448Z,45.82
2023-03-13T07:54:26.066Z,46.10
2023-03-13T07:56:55.105Z,46.00
2023-03-13T07:59:24.511Z,45.37
2023-03-13T08:01:53.662Z,45.78
2023-03-13T08:04:20.446Z,45.23
2023-03-13T08:06:49.445Z,45.31
2023-03-13T08:09:16.414Z,45.37
2023-03-13T08:11:44.689Z,45.40
2023-03-13T08:14:14.232Z,44.86
2023-03-13T08:16:41.271Z,44.74
2023-03-13T08:19:13.353Z,43.50
2023-03-13T08:21:39.955Z,43.41
2023-03-13T08:24:07.243Z,43.09
2023-03-13T08:26:34.910Z,42.58
2023-03-13T08:29:02.266Z,42.27
2023-03-13T08:31:30.008Z,42.56
2023-03-13T08:33:56.703Z,41.85
2023-03-13T08:36:33.442Z,41.97
2023-03-13T08:39:00.877Z,42.45
2023-03-13T08:41:30.107Z,42.36
2023-03-13T08:43:59.321Z,41.37
2023-03-13T08:46:26.322Z,41.50
2023-03-13T08:48:54.104Z,41.70
2023-03-13T08:51:21.693Z,40.90
2023-03-13T08:53:48.422Z,40.67
2023-03-13T08:56:18.956Z,40.93
2023-03-13T08:58:51.561Z,40.64
2023-03-13T09:01:18.427Z,40.67
2023-03-13T09:03:45.195Z,40.18
2023-03-13T09:06:12.113Z,40.47
2023-03-13T09:08:39.203Z,40.39
2023-03-13T09:11:06.965Z,39.52
2023-03-13T09:13:37.554Z,39.70
2023-03-13T09:16:10.758Z,38.83
2023-03-13T09:18:40.654Z,38.93
2023-03-13T09:21:08.264Z,38.35
2023-03-13T09:23:36.959Z,38.53
2023-03-13T09:26:03.878Z,37.84
2023-03-13T09:28:30.973Z,38.07
2023-03-13T09:31:08.521Z,37.29
2023-03-13T09:33:38.210Z,38.07
2023-03-13T09:36:09.739Z,37.12
2023-03-13T09:38:39.215Z,36.48
2023-03-13T09:41:26.161Z,37.05
2023-03-13T09:43:57.120Z,35.93
2023-03-13T09:46:25.651Z,35.17
2023-03-13T09:48:58.850Z,35.75
2023-03-13T09:51:30.094Z,35.02
2023-03-13T09:53:58.013Z,35.41
2023-03-13T09:56:25.402Z,35.70
2023-03-13T09:58:54.409Z,35.80
2023-03-13T10:01:25.978Z,35.53
2023-03-13T10:03:55.192Z,35.52
2023-03-13T10:06:22.051Z,35.57
2023-03-13T10:08:48.788Z,35.25
2023-03-13T10:11:29.075Z,35.34
2023-03-13T10:14:01.746Z,34.63
2023-03-13T10:16:39.480Z,34.44
2023-03-13T10:19:12.897Z,34.46
2023-03-13T10:21:39.591Z,33.84
2023-03-13T10:24:14.720Z,34.14
2023-03-13T10:26:43.441Z,34.36
2023-03-13T10:29:26.315Z,34.70
2023-03-13T10:31:59.966Z,34.19
2023-03-13T10:34:32.091Z,34.14
2023-03-13T10:36:59.797Z,34.27
2023-03-13T10:39:27.537Z,34.36
2023-03-13T10:42:20.948Z,33.51
2023-03-13T10:44:50.104Z,33.35
2023-03-13T10:47:16.700Z,32.49
2023-03-13T10:49:53.227Z,32.78
2023-03-13T10:52:43.276Z,32.94
2023-03-13T10:55:11.328Z,32.98
2023-03-13T10:57:37.902Z,33.05
2023-03-13T11:00:10.523Z,32.62
2023-03-13T11:02:38.637Z,32.68
2023-03-13T11:05:23.873Z,32.59
2023-03-13T11:07:50.527Z,32.17
2023-03-13T11:10:18.468Z,32.07
2023-03-13T11:12:51.567Z,31.34
2023-03-13T11:15:25.847Z,31.18
2023-03-13T11:17:54.812Z,31.29
2023-03-13T11:20:25.506Z,31.20
2023-03-13T11:23:01.480Z,31.24
2023-03-13T11:25:33.925Z,30.97
2023-03-13T11:28:03.912Z,30.87
2023-03-13T11:30:42.608Z,31.12
2023-03-13T11:33:23.473Z,30.32
2023-03-13T11:35:50.956Z,30.19
2023-03-13T11:38:36.958Z,30.15
2023-03-13T11:41:06.662Z,30.29
2023-03-13T11:43:48.299Z,30.22
2023-03-13T11:46:15.381Z,29.20
2023-03-13T11:48:53.978Z,29.22
2023-03-13T11:51:33.289Z,28.93
2023-03-13T11:54:05.145Z,29.14
2023-03-13T11:56:50.032Z,29.20
2023-03-13T11:59:19.900Z,29.38
2023-03-13T12:01:52.296Z,29.78
2023-03-13T12:04:26.382Z,30.14
2023-03-13T12:06:56.040Z,30.53
2023-03-13T12:09:23.074Z,31.20
2023-03-13T12:11:55.733Z,31.22
2023-03-13T12:14:28.563Z,30.61
2023-03-13T12:16:56.578Z,29.24
2023-03-13T12:19:26.483Z,28.99
2023-03-13T12:21:53.975Z,28.84
2023-03-13T12:24:24.074Z,28.16
2023-03-13T12:26:54.458Z,28.53
2023-03-13T12:29:21.098Z,27.80
2023-03-13T12:31:49.323Z,27.54
2023-03-13T12:34:18.915Z,27.74
2023-03-13T12:36:45.512Z,27.16
2023-03-13T12:39:18.181Z,26.76
2023-03-13T12:41:45.622Z,26.56
2023-03-13T12:44:14.945Z,27.01
2023-03-13T12:46:43.198Z,27.17
2023-03-13T12:49:18.451Z,27.14
2023-03-13T12:51:48.500Z,26.55
2023-03-13T12:54:15.506Z,26.20
2023-03-13T12:57:00.932Z,26.57
2023-03-13T12:59:33.492Z,25.69
2023-03-13T13:02:00.570Z,26.10
2023-03-13T13:04:27.585Z,26.40
2023-03-13T13:06:59.447Z,25.71
2023-03-13T13:09:27.400Z,25.64
2023-03-13T13:11:55.459Z,25.68
2023-03-13T13:14:22.376Z,26.41
2023-03-13T13:16:51.886Z,26.45
2023-03-13T13:19:24.475Z,26.03
2023-03-13T13:22:13.207Z,24.96
2023-03-13T13:24:39.791Z,25.71
2023-03-13T13:27:13.322Z,25.76
2023-03-13T13:29:42.305Z,25.90
2023-03-13T13:32:14.502Z,25.42
2023-03-13T13:34:53.360Z,25.02
2023-03-13T13:37:23.197Z,24.99
2023-03-13T13:39:52.902Z,25.43
2023-03-13T13:42:29.025Z,26.40
2023-03-13T13:45:01.129Z,26.25
2023-03-13T13:47:33.522Z,26.38
2023-03-13T13:50:15.163Z,25.39
2023-03-13T13:52:42.354Z,25.70
2023-03-13T13:55:27.699Z,26.32
2023-03-13T13:58:06.875Z,25.97
2023-03-13T14:00:40.965Z,25.47
2023-03-13T14:03:24.009Z,24.95
2023-03-13T14:05:54.792Z,25.87
2023-03-13T14:08:30.775Z,26.15
2023-03-13T14:10:57.390Z,26.90
2023-03-13T14:13:24.959Z,28.01
2023-03-13T14:15:53.878Z,28.08
2023-03-13T14:18:21.344Z,26.90
2023-03-13T14:20:53.349Z,25.23
2023-03-13T14:23:32.582Z,24.75
2023-03-13T14:26:01.586Z,24.33
2023-03-13T14:28:28.810Z,25.32
2023-03-13T14:31:00.163Z,26.29
2023-03-13T14:33:28.272Z,27.13
2023-03-13T14:36:00.404Z,27.99
2023-03-13T14:38:27.934Z,28.34
2023-03-13T14:40:55.760Z,28.96
2023-03-13T14:43:25.819Z,29.27
2023-03-13T14:45:52.602Z,29.33
2023-03-13T14:48:31.090Z,29.31
2023-03-13T14:51:14.230Z,29.67
2023-03-13T14:53:55.567Z,29.33
2023-03-13T14:56:30.196Z,29.32
2023-03-13T14:59:06.134Z,29.59
2023-03-13T15:01:32.837Z,29.54
2023-03-13T15:03:59.889Z,29.06
2023-03-13T15:06:28.168Z,29.18
2023-03-13T15:09:27.514Z,29.36
2023-03-13T15:11:58.250Z,29.64
2023-03-13T15:14:37.315Z,29.78
2023-03-13T15:17:06.816Z,28.58
2023-03-13T15:19:33.412Z,27.91
2023-03-13T15:22:02.343Z,27.94
2023-03-13T15:24:29.033Z,28.23
2023-03-13T15:27:00.211Z,28.86
2023-03-13T15:29:26.824Z,29.15
2023-03-13T15:32:04.108Z,29.70
2023-03-13T15:34:34.415Z,30.62
2023-03-13T15:37:00.990Z,31.13
2023-03-13T15:39:29.632Z,32.41
2023-03-13T15:41:56.404Z,32.76
2023-03-13T15:44:22.973Z,33.03
2023-03-13T15:46:49.778Z,33.28
2023-03-13T15:49:18.686Z,33.37
2023-03-13T15:51:45.427Z,33.72
2023-03-13T15:54:14.421Z,33.46
2023-03-13T15:56:41.165Z,33.78
2023-03-13T15:59:15.002Z,33.93
2023-03-13T16:01:48.572Z,34.00
2023-03-13T16:04:15.731Z,33.90
2023-03-13T16:06:44.805Z,33.74
2023-03-13T16:09:14.197Z,34.50
2023-03-13T16:11:40.844Z,34.83
2023-03-13T16:14:07.525Z,34.68
2023-03-13T16:16:37.282Z,34.84
2023-03-13T16:19:07.821Z,34.95
2023-03-13T16:21:40.390Z,35.01
2023-03-13T16:24:07.085Z,35.31
2023-03-13T16:26:33.841Z,35.56
2023-03-13T16:29:00.500Z,35.60
2023-03-13T16:31:30.724Z,35.94
2023-03-13T16:33:58.125Z,36.19
2023-03-13T16:36:30.229Z,36.55
2023-03-13T16:38:57.523Z,36.79
2023-03-13T16:41:25.108Z,37.09
2023-03-13T16:43:51.798Z,37.51
2023-03-13T16:46:19.917Z,37.70
2023-03-13T16:48:46.985Z,37.88
2023-03-13T16:51:17.522Z,38.05
2023-03-13T16:53:45.584Z,37.91
2023-03-13T16:56:27.381Z,38.38
2023-03-13T16:58:54.308Z,38.44
2023-03-13T17:01:26.081Z,38.29
2023-03-13T17:03:55.185Z,38.53
2023-03-13T17:06:24.886Z,38.63
2023-03-13T17:08:54.066Z,38.87
2023-03-13T17:11:23.466Z,38.70
2023-03-13T17:13:51.006Z,38.88
2023-03-13T17:16:24.932Z,38.88
2023-03-13T17:18:52.534Z,39.15
2023-03-13T17:21:23.647Z,38.95
2023-03-13T17:23:50.390Z,39.29
2023-03-13T17:26:17.403Z,39.35
2023-03-13T17:28:44.594Z,39.37
2023-03-13T17:31:15.705Z,39.24
2023-03-13T17:33:44.939Z,39.15
2023-03-13T17:36:18.641Z,39.47
2023-03-13T17:38:49.549Z,39.39
2023-03-13T17:41:18.233Z,39.79
2023-03-13T17:43:47.332Z,39.62
2023-03-13T17:46:16.566Z,39.55
2023-03-13T17:48:43.301Z,39.68
2023-03-13T17:51:23.458Z,39.78
2023-03-13T17:53:52.922Z,39.64
2023-03-13T17:56:26.503Z,39.76
2023-03-13T17:58:56.404Z,39.86
2023-03-13T18:01:23.985Z,40.14
2023-03-13T18:03:50.811Z,40.04
2023-03-13T18:06:31.220Z,40.11
2023-03-13T18:09:08.192Z,40.14
2023-03-13T18:11:35.515Z,40.23
2023-03-13T18:14:05.426Z,40.36
2023-03-13T18:16:39.151Z,40.39
2023-03-13T18:19:15.260Z,40.26
2023-03-13T18:21:42.828Z,40.27
2023-03-13T18:24:09.636Z,40.36
2023-03-13T18:26:37.040Z,40.42
2023-03-13T18:29:06.714Z,40.57
2023-03-13T18:31:41.858Z,40.57
2023-03-13T18:34:08.537Z,40.55
2023-03-13T18:36:35.121Z,40.46
2023-03-13T18:39:01.884Z,40.78
2023-03-13T18:41:28.975Z,41.02
2023-03-13T18:43:55.594Z,40.96
2023-03-13T18:46:23.693Z,41.14
2023-03-13T18:48:50.762Z,41.23
2023-03-13T18:51:17.995Z,41.25
2023-03-13T18:53:44.933Z,41.24
2023-03-13T18:56:40.058Z,41.16
2023-03-13T18:59:07.284Z,40.87
2023-03-13T19:01:34.018Z,41.03
2023-03-13T19:04:01.170Z,41.13
2023-03-13T19:06:28.853Z,41.26
2023-03-13T19:09:00.282Z,41.34
2023-03-13T19:11:27.899Z,41.49
2023-03-13T19:13:54.739Z,41.71
2023-03-13T19:16:31.031Z,41.81
2023-03-13T19:19:00.029Z,41.85
2023-03-13T19:21:30.267Z,41.82
2023-03-13T19:23:57.457Z,41.79
2023-03-13T19:26:41.854Z,41.79
2023-03-13T19:29:12.961Z,41.47
2023-03-13T19:31:39.701Z,41.71
2023-03-13T19:34:06.498Z,41.76
2023-03-13T19:36:36.285Z,41.74
2023-03-13T19:39:13.169Z,41.90
2023-03-13T19:41:39.842Z,41.94
2023-03-13T19:44:06.607Z,42.04
2023-03-13T19:46:33.217Z,41.95
2023-03-13T19:49:04.775Z,41.81
2023-03-13T19:51:36.713Z,41.93
2023-03-13T19:54:10.388Z,41.86
2023-03-13T19:56:40.261Z,42.06
2023-03-13T19:59:09.850Z,42.08
2023-03-13T20:01:38.981Z,42.02
2023-03-13T20:04:06.085Z,42.14
2023-03-13T20:06:34.928Z,42.11
2023-03-13T20:09:06.098Z,42.17
2023-03-13T20:11:32.690Z,42.00
2023-03-13T20:14:00.005Z,41.93
2023-03-13T20:16:28.083Z,42.00
2023-03-13T20:18:58.096Z,41.94
2023-03-13T20:21:27.659Z,41.90
2023-03-13T20:23:54.436Z,41.88
2023-03-13T20:26:21.903Z,41.86
2023-03-13T20:28:49.773Z,41.75
2023-03-13T20:31:17.295Z,41.56
2023-03-13T20:33:43.919Z,41.40
2023-03-13T20:36:14.268Z,41.48
2023-03-13T20:38:41.131Z,41.56
2023-03-13T20:41:08.319Z,41.56
2023-03-13T20:43:38.022Z,41.32
2023-03-13T20:46:07.427Z,41.31
2023-03-13T20:48:39.397Z,41.32
2023-03-13T20:51:08.844Z,40.85
2023-03-13T20:53:38.936Z,40.71
2023-03-13T20:56:08.490Z,40.35
2023-03-13T20:58:35.642Z,40.01
2023-03-13T21:01:03.410Z,39.87
2023-03-13T21:03:35.729Z,39.59
2023-03-13T21:06:38.078Z,39.42
2023-03-13T21:09:05.807Z,39.44
2023-03-13T21:11:37.293Z,39.18
2023-03-13T21:14:04.004Z,39.24
2023-03-13T21:16:31.062Z,39.34
2023-03-13T21:19:00.946Z,39.12
2023-03-13T21:21:29.260Z,38.63
2023-03-13T21:23:55.873Z,38.82
2023-03-13T21:26:24.905Z,38.57
2023-03-13T21:28:53.059Z,38.99
2023-03-13T21:31:20.874Z,38.19
2023-03-13T21:33:50.339Z,38.18
2023-03-13T21:36:22.861Z,38.34
2023-03-13T21:38:50.068Z,38.51
2023-03-13T21:41:20.307Z,38.20
2023-03-13T21:43:47.570Z,37.95
2023-03-13T21:46:15.609Z,38.27
2023-03-13T21:48:43.167Z,38.05
2023-03-13T21:51:10.610Z,38.29
2023-03-13T21:53:42.225Z,37.97
2023-03-13T21:56:09.141Z,37.79
2023-03-13T21:58:38.145Z,37.81
2023-03-13T22:01:04.862Z,37.69
2023-03-13T22:03:32.416Z,37.88
2023-03-13T22:05:59.136Z,37.58
2023-03-13T22:08:25.905Z,38.03
2023-03-13T22:11:29.197Z,38.14
2023-03-13T22:13:58.759Z,38.06
2023-03-13T22:16:30.141Z,38.10
2023-03-13T22:18:59.188Z,38.31
2023-03-13T22:21:25.793Z,38.33
2023-03-13T22:23:52.451Z,38.43
2023-03-13T22:26:19.184Z,38.11
2023-03-13T22:28:48.235Z,38.35
2023-03-13T22:31:14.869Z,38.35
2023-03-13T22:33:41.584Z,38.50
2023-03-13T22:36:08.948Z,38.61
2023-03-13T22:38:41.164Z,38.64
2023-03-13T22:41:08.722Z,38.57
2023-03-13T22:43:37.911Z,38.78
2023-03-13T22:46:04.790Z,38.90
2023-03-13T22:48:32.042Z,38.95
2023-03-13T22:51:08.537Z,38.90
2023-03-13T22:53:36.023Z,38.97
2023-03-13T22:56:02.614Z,39.31
2023-03-13T22:58:29.320Z,39.41
2023-03-13T23:01:00.794Z,39.46
2023-03-13T23:03:27.507Z,39.51
2023-03-13T23:05:54.209Z,39.70
2023-03-13T23:08:23.251Z,39.97
2023-03-13T23:10:52.331Z,39.92
2023-03-13T23:13:18.917Z,40.23
2023-03-13T23:15:55.514Z,40.38
2023-03-13T23:18:23.309Z,40.50
2023-03-13T23:20:52.247Z,40.51
2023-03-13T23:23:18.923Z,40.67
2023-03-13T23:25:45.576Z,40.79
2023-03-13T23:28:12.425Z,40.91
2023-03-13T23:30:39.096Z,41.04
2023-03-13T23:33:08.046Z,41.14
2023-03-13T23:35:39.114Z,41.25
2023-03-13T23:38:05.843Z,41.21
2023-03-13T23:40:32.824Z,41.16
2023-03-13T23:42:59.433Z,41.17
2023-03-13T23:45:30.845Z,41.45
2023-03-13T23:47:57.431Z,41.64
2023-03-13T23:50:26.686Z,41.72
2023-03-13T23:52:55.671Z,41.72
2023-03-13T23:55:24.772Z,41.83
2023-03-13T23:57:51.442Z,41.93
